createdAt,value
2017-12-16T00:00:59.029Z,9.57
2017-12-16T00:03:27.693Z,11.07
2017-12-16T00:05:56.863Z,10.88
2017-12-16T00:08:25.968Z,10.00
2017-12-16T00:10:55.073Z,8.10
2017-12-16T00:13:25.410Z,7.53
2017-12-16T00:15:54.862Z,10.93
2017-12-16T00:18:23.166Z,6.95
2017-12-16T00:20:52.619Z,9.30
2017-12-16T00:23:21.402Z,10.45
2017-12-16T00:25:50.077Z,10.35
2017-12-16T00:28:18.097Z,8.90
2017-12-16T00:30:46.701Z,8.18
2017-12-16T00:33:15.350Z,8.98
2017-12-16T00:35:43.689Z,8.02
2017-12-16T00:38:12.827Z,12.43
2017-12-16T00:40:41.519Z,9.95
2017-12-16T00:43:09.842Z,8.75
2017-12-16T00:45:38.521Z,12.43
2017-12-16T00:48:08.471Z,7.55
2017-12-16T00:50:37.136Z,9.85
2017-12-16T00:53:05.797Z,10.25
2017-12-16T00:55:34.130Z,9.45
2017-12-16T00:58:02.785Z,8.40
2017-12-16T01:00:32.225Z,11.38
2017-12-16T01:03:00.542Z,9.15
2017-12-16T01:05:29.467Z,9.18
2017-12-16T01:07:57.803Z,9.77
2017-12-16T01:10:26.475Z,7.28
2017-12-16T01:12:54.807Z,7.43
2017-12-16T01:15:23.488Z,10.43
2017-12-16T01:17:52.598Z,11.12
2017-12-16T01:20:22.233Z,8.45
2017-12-16T01:22:50.894Z,8.93
2017-12-16T01:25:19.559Z,7.20
2017-12-16T01:27:48.648Z,7.40
2017-12-16T01:30:17.762Z,10.95
2017-12-16T01:32:47.191Z,7.45
2017-12-16T01:35:27.635Z,7.18
2017-12-16T01:38:07.469Z,13.65
2017-12-16T01:40:36.240Z,9.43
2017-12-16T01:43:04.233Z,12.07
2017-12-16T01:45:33.975Z,8.07
2017-12-16T01:48:02.635Z,9.77
2017-12-16T01:50:31.970Z,10.15
2017-12-16T01:52:59.959Z,8.82
2017-12-16T01:55:28.017Z,12.50
2017-12-16T01:57:56.014Z,8.80
2017-12-16T02:00:24.022Z,9.80
2017-12-16T02:02:52.782Z,9.45
2017-12-16T02:05:21.125Z,8.68
2017-12-16T02:07:49.322Z,8.90
2017-12-16T02:10:17.664Z,11.60
2017-12-16T02:12:45.696Z,10.63
2017-12-16T02:15:14.038Z,10.43
2017-12-16T02:17:42.045Z,10.93
2017-12-16T02:20:10.839Z,14.43
2017-12-16T02:22:39.610Z,11.05
2017-12-16T02:25:07.622Z,13.40
2017-12-16T02:27:35.641Z,11.82
2017-12-16T02:30:03.647Z,15.90
2017-12-16T02:32:32.442Z,17.05
2017-12-16T02:35:00.450Z,17.35
2017-12-16T02:37:28.474Z,19.87
2017-12-16T02:39:57.249Z,14.65
2017-12-16T02:42:25.282Z,17.73
2017-12-16T02:44:53.302Z,17.75
2017-12-16T02:47:22.094Z,15.55
2017-12-16T02:49:50.865Z,15.68
2017-12-16T02:52:18.897Z,16.67
2017-12-16T02:54:46.905Z,18.33
2017-12-16T02:57:14.938Z,19.42
2017-12-16T02:59:42.946Z,20.73
2017-12-16T03:02:10.971Z,16.48
2017-12-16T03:04:38.982Z,17.80
2017-12-16T03:07:07.009Z,17.25
2017-12-16T03:09:35.350Z,18.50
2017-12-16T03:12:04.146Z,17.65
2017-12-16T03:14:32.930Z,19.08
2017-12-16T03:17:00.961Z,22.75
2017-12-16T03:19:28.970Z,16.90
2017-12-16T03:21:57.886Z,14.80
2017-12-16T03:24:25.903Z,19.45
2017-12-16T03:26:53.929Z,18.98
2017-12-16T03:29:21.946Z,17.12
2017-12-16T03:31:49.977Z,20.23
2017-12-16T03:34:18.007Z,17.98
2017-12-16T03:36:46.046Z,15.80
2017-12-16T03:39:14.057Z,14.30
2017-12-16T03:41:42.072Z,18.73
2017-12-16T03:44:10.093Z,16.58
2017-12-16T03:46:38.114Z,15.38
2017-12-16T03:49:06.157Z,21.12
2017-12-16T03:51:34.935Z,20.42
2017-12-16T03:54:02.937Z,19.17
2017-12-16T03:56:30.975Z,17.60
2017-12-16T03:58:58.981Z,17.17
2017-12-16T04:01:27.349Z,12.77
2017-12-16T04:03:55.689Z,13.52
2017-12-16T04:06:23.699Z,13.88
2017-12-16T04:08:51.728Z,14.98
2017-12-16T04:11:20.407Z,13.27
2017-12-16T04:13:48.433Z,11.15
2017-12-16T04:16:16.442Z,13.25
2017-12-16T04:18:44.507Z,15.00
2017-12-16T04:21:13.149Z,14.50
2017-12-16T04:23:41.926Z,18.52
2017-12-16T04:26:09.975Z,17.10
2017-12-16T04:28:37.975Z,12.13
2017-12-16T04:31:06.753Z,12.90
2017-12-16T04:33:34.777Z,15.02
2017-12-16T04:36:03.559Z,13.57
2017-12-16T04:38:31.594Z,15.23
2017-12-16T04:41:00.383Z,13.48
2017-12-16T04:43:29.159Z,11.77
2017-12-16T04:45:57.196Z,18.15
2017-12-16T04:48:25.206Z,13.75
2017-12-16T04:50:53.246Z,12.60
2017-12-16T04:53:21.251Z,11.65
2017-12-16T04:55:49.256Z,13.45
2017-12-16T04:58:17.285Z,16.40
2017-12-16T05:00:45.294Z,12.77
2017-12-16T05:03:13.326Z,14.85
2017-12-16T05:05:41.334Z,15.10
2017-12-16T05:08:09.347Z,14.73
2017-12-16T05:10:37.373Z,17.00
2017-12-16T05:13:05.391Z,13.48
2017-12-16T05:15:33.771Z,14.07
2017-12-16T05:18:01.777Z,16.35
2017-12-16T05:20:30.554Z,13.45
2017-12-16T05:22:58.579Z,15.40
2017-12-16T05:25:26.606Z,14.05
2017-12-16T05:27:55.729Z,20.75
2017-12-16T05:30:24.502Z,14.05
2017-12-16T05:32:53.270Z,11.70
2017-12-16T05:35:21.321Z,17.90
2017-12-16T05:37:49.331Z,13.40
2017-12-16T05:40:18.142Z,16.60
2017-12-16T05:42:46.159Z,12.88
2017-12-16T05:45:14.174Z,13.73
2017-12-16T05:47:42.961Z,13.20
2017-12-16T05:50:11.737Z,12.32
2017-12-16T05:52:40.548Z,15.45
2017-12-16T05:55:08.570Z,15.80
2017-12-16T05:57:36.576Z,15.73
2017-12-16T06:00:05.378Z,11.57
2017-12-16T06:02:33.389Z,15.45
2017-12-16T06:05:01.426Z,13.77
2017-12-16T06:07:29.432Z,15.60
2017-12-16T06:09:57.455Z,15.30
2017-12-16T06:12:26.251Z,14.82
2017-12-16T06:14:55.271Z,14.77
2017-12-16T06:17:23.312Z,13.60
2017-12-16T06:19:52.458Z,14.87
2017-12-16T06:22:20.476Z,14.32
2017-12-16T06:24:49.274Z,20.05
2017-12-16T06:27:18.425Z,14.60
2017-12-16T06:29:46.850Z,15.52
2017-12-16T06:32:15.958Z,15.02
2017-12-16T06:34:43.970Z,18.75
2017-12-16T06:37:12.002Z,17.92
2017-12-16T06:39:40.474Z,18.25
2017-12-16T06:42:09.094Z,20.40
2017-12-16T06:44:37.440Z,16.17
2017-12-16T06:47:05.461Z,16.37
2017-12-16T06:49:33.485Z,19.02
2017-12-16T06:52:01.505Z,18.67
2017-12-16T06:54:29.875Z,21.48
2017-12-16T06:56:57.885Z,24.52
2017-12-16T06:59:26.681Z,18.95
2017-12-16T07:01:55.831Z,21.08
2017-12-16T07:04:23.863Z,21.48
2017-12-16T07:06:51.912Z,23.55
2017-12-16T07:09:19.938Z,18.42
2017-12-16T07:11:47.934Z,19.85
2017-12-16T07:14:15.974Z,21.17
2017-12-16T07:16:44.000Z,18.62
2017-12-16T07:19:12.046Z,22.87
2017-12-16T07:21:40.935Z,23.27
2017-12-16T07:24:08.941Z,22.30
2017-12-16T07:26:37.732Z,20.40
2017-12-16T07:29:06.503Z,22.42
2017-12-16T07:31:34.583Z,25.20
2017-12-16T07:34:02.646Z,23.77
2017-12-16T07:36:30.654Z,26.00
2017-12-16T07:39:00.302Z,25.60
2017-12-16T07:41:28.638Z,23.98
2017-12-16T07:43:58.730Z,26.90
2017-12-16T07:46:27.405Z,28.48
2017-12-16T07:48:55.738Z,33.28
2017-12-16T07:51:24.413Z,23.77
2017-12-16T07:53:53.090Z,23.35
2017-12-16T07:56:22.230Z,29.08
2017-12-16T07:58:50.898Z,28.48
2017-12-16T08:01:18.898Z,26.62
2017-12-16T08:03:47.283Z,23.60
2017-12-16T08:06:15.635Z,27.08
2017-12-16T08:11:37.215Z,26.65
2017-12-16T08:14:05.586Z,23.95
2017-12-16T08:16:34.296Z,28.05
2017-12-16T08:19:02.969Z,23.45
2017-12-16T08:21:31.714Z,23.52
2017-12-16T08:24:02.020Z,29.65
2017-12-16T08:26:30.705Z,24.80
2017-12-16T08:28:59.404Z,32.28
2017-12-16T08:31:28.082Z,25.67
2017-12-16T08:33:56.745Z,27.15
2017-12-16T08:36:25.993Z,31.20
2017-12-16T08:38:54.660Z,30.70
2017-12-16T08:41:23.362Z,28.50
2017-12-16T08:43:52.054Z,30.52
2017-12-16T08:46:21.670Z,28.65
2017-12-16T08:48:50.371Z,27.55
2017-12-16T08:51:19.051Z,28.83
2017-12-16T08:53:47.750Z,28.95
2017-12-16T08:56:16.425Z,31.48
2017-12-16T08:58:45.096Z,25.80
2017-12-16T09:01:13.119Z,28.75
2017-12-16T09:03:41.138Z,30.20
2017-12-16T09:06:09.837Z,24.35
2017-12-16T09:08:38.509Z,26.83
2017-12-16T09:11:07.182Z,27.70
2017-12-16T09:13:35.868Z,27.85
2017-12-16T09:16:04.546Z,32.65
2017-12-16T09:18:34.011Z,28.62
2017-12-16T09:21:02.681Z,27.40
2017-12-16T09:23:31.346Z,25.15
2017-12-16T09:26:00.035Z,30.33
2017-12-16T09:28:28.717Z,30.17
2017-12-16T09:30:57.412Z,30.85
2017-12-16T09:33:26.094Z,29.15
2017-12-16T09:35:54.774Z,28.95
2017-12-16T09:38:23.470Z,27.87
2017-12-16T09:40:52.139Z,29.80
2017-12-16T09:43:20.912Z,29.58
2017-12-16T09:45:49.626Z,31.58
2017-12-16T09:48:19.976Z,26.23
2017-12-16T09:50:48.732Z,27.10
2017-12-16T09:53:31.747Z,32.88
2017-12-16T09:56:08.657Z,29.52
2017-12-16T10:04:29.426Z,25.10
2017-12-16T10:06:58.025Z,28.55
2017-12-16T10:09:26.383Z,27.15
2017-12-16T10:11:55.062Z,28.50
2017-12-16T10:14:23.761Z,29.87
2017-12-16T10:16:52.442Z,23.42
2017-12-16T10:19:21.137Z,23.60
2017-12-16T10:21:49.506Z,27.45
2017-12-16T10:24:18.189Z,24.83
2017-12-16T10:26:47.459Z,27.02
2017-12-16T10:29:15.823Z,28.35
2017-12-16T10:31:47.092Z,26.87
2017-12-16T10:34:33.334Z,30.27
2017-12-16T10:37:08.552Z,29.15
2017-12-16T10:39:37.222Z,26.73
2017-12-16T12:10:42.919Z,31.17
2017-12-16T12:13:11.611Z,35.17
2017-12-16T12:15:40.286Z,31.60
2017-12-16T12:18:08.977Z,38.13
2017-12-16T12:20:37.660Z,26.52
2017-12-16T12:23:06.969Z,29.15
2017-12-16T12:25:35.638Z,26.58
2017-12-16T12:28:04.333Z,28.80
2017-12-16T12:30:34.046Z,29.45
2017-12-16T12:33:02.730Z,23.60
2017-12-16T12:35:31.437Z,26.30
2017-12-16T12:38:00.130Z,25.52
2017-12-16T12:40:28.803Z,27.27
2017-12-16T12:42:57.486Z,25.77
2017-12-16T12:45:26.166Z,26.70
2017-12-16T12:47:54.861Z,25.20
2017-12-16T12:50:23.529Z,31.23
2017-12-16T12:52:58.723Z,30.37
2017-12-16T12:55:27.407Z,33.13
2017-12-16T12:57:56.086Z,31.15
2017-12-16T13:00:24.772Z,27.20
2017-12-16T13:02:53.437Z,26.23
2017-12-16T13:05:23.143Z,27.60
2017-12-16T13:07:51.679Z,26.75
2017-12-16T13:10:21.419Z,28.83
2017-12-16T13:12:50.379Z,27.35
2017-12-16T13:15:19.848Z,26.77
2017-12-16T13:17:48.551Z,25.75
2017-12-16T13:20:51.210Z,21.52
2017-12-16T13:23:46.870Z,20.30
2017-12-16T13:28:53.706Z,24.27
2017-12-16T13:34:18.799Z,21.35
2017-12-16T13:36:48.662Z,23.67
2017-12-16T13:42:03.834Z,21.92
2017-12-16T13:44:59.532Z,21.77
2017-12-16T13:52:07.397Z,20.12
2017-12-16T13:54:49.106Z,22.67
2017-12-16T13:57:18.137Z,20.48
2017-12-16T13:59:54.652Z,24.25
2017-12-16T14:02:24.026Z,25.75
2017-12-16T14:04:52.759Z,19.23
2017-12-16T14:07:22.610Z,20.62
2017-12-16T14:09:51.273Z,30.80
2017-12-16T14:12:20.203Z,34.78
2017-12-16T14:14:49.857Z,28.27
2017-12-16T14:17:21.330Z,24.25
2017-12-16T14:19:50.675Z,21.52
2017-12-16T14:22:21.115Z,23.33
2017-12-16T14:24:50.732Z,28.23
2017-12-16T14:27:20.512Z,24.92
2017-12-16T14:29:49.969Z,29.55
2017-12-16T14:32:18.653Z,26.42
2017-12-16T14:34:47.002Z,27.42
2017-12-16T14:37:15.946Z,26.00
2017-12-16T14:39:45.160Z,23.45
2017-12-16T14:42:13.650Z,24.83
2017-12-16T14:44:44.028Z,27.60
2017-12-16T14:47:13.041Z,30.50
2017-12-16T14:49:41.838Z,26.17
2017-12-16T14:52:10.522Z,24.30
2017-12-16T14:54:39.218Z,27.15
2017-12-16T14:57:07.904Z,29.70
2017-12-16T14:59:36.574Z,34.60
2017-12-16T15:02:05.871Z,29.77
2017-12-16T15:04:34.575Z,21.62
2017-12-16T15:07:04.999Z,30.98
2017-12-16T15:09:34.724Z,23.92
2017-12-16T15:12:03.394Z,30.35
2017-12-16T15:14:32.087Z,33.72
2017-12-16T15:17:00.752Z,25.40
2017-12-16T15:19:37.075Z,24.87
2017-12-16T15:22:06.322Z,28.87
2017-12-16T15:24:35.001Z,27.75
2017-12-16T15:30:14.178Z,28.77
2017-12-16T15:32:52.468Z,24.25
2017-12-16T15:35:22.115Z,27.08
2017-12-16T15:37:51.498Z,29.65
2017-12-16T15:40:19.966Z,27.20
2017-12-16T15:45:24.293Z,26.30
2017-12-16T15:47:53.498Z,23.35
2017-12-16T15:50:23.150Z,27.62
2017-12-16T15:52:51.832Z,29.17
2017-12-16T15:55:20.712Z,29.10
2017-12-16T16:03:23.078Z,31.42
2017-12-16T16:05:51.449Z,30.42
2017-12-16T16:08:20.382Z,27.37
2017-12-16T16:10:49.038Z,31.87
2017-12-16T16:13:17.045Z,29.40
2017-12-16T16:15:45.420Z,24.90
2017-12-16T16:18:14.093Z,29.42
2017-12-16T16:20:42.766Z,27.58
2017-12-16T16:23:11.517Z,27.55
2017-12-16T16:25:40.637Z,32.25
2017-12-16T16:28:08.680Z,29.02
2017-12-16T16:30:37.015Z,28.52
2017-12-16T16:33:05.696Z,37.13
2017-12-16T16:35:35.062Z,27.73
2017-12-16T16:38:04.174Z,24.58
2017-12-16T16:40:32.205Z,26.45
2017-12-16T16:43:00.283Z,27.07
2017-12-16T16:45:28.291Z,25.15
2017-12-16T16:47:56.977Z,25.00
2017-12-16T16:50:24.990Z,26.67
2017-12-16T16:52:53.362Z,29.35
2017-12-16T16:55:21.695Z,26.73
2017-12-16T16:57:50.805Z,35.40
2017-12-16T17:00:18.822Z,24.77
2017-12-16T17:02:47.495Z,29.12
2017-12-16T17:05:16.187Z,24.65
2017-12-16T17:07:44.533Z,22.48
2017-12-16T17:10:12.867Z,25.02
2017-12-16T17:12:41.545Z,26.98
2017-12-16T17:15:09.873Z,29.77
2017-12-16T17:17:38.567Z,30.92
2017-12-16T17:20:07.237Z,26.73
2017-12-16T17:22:37.235Z,24.05
2017-12-16T17:25:06.266Z,21.27
2017-12-16T17:27:34.615Z,25.90
2017-12-16T17:30:03.822Z,24.33
2017-12-16T17:32:33.262Z,22.20
2017-12-16T17:35:01.925Z,27.80
2017-12-16T17:37:29.980Z,37.63
2017-12-16T17:39:59.095Z,26.87
2017-12-16T17:42:28.221Z,25.98
2017-12-16T17:44:56.890Z,25.67
2017-12-16T17:47:25.219Z,26.35
2017-12-16T17:49:53.913Z,26.23
2017-12-16T17:52:22.582Z,27.27
2017-12-16T17:54:51.278Z,27.17
2017-12-16T17:57:19.964Z,24.67
2017-12-16T17:59:48.897Z,26.95
2017-12-16T18:02:17.250Z,29.65
2017-12-16T18:04:45.592Z,27.33
2017-12-16T18:07:13.633Z,26.10
2017-12-16T18:09:43.423Z,27.37
2017-12-16T18:12:12.608Z,24.45
2017-12-16T18:20:02.214Z,25.92
2017-12-16T18:22:30.911Z,25.95
2017-12-16T18:24:58.918Z,25.45
2017-12-16T18:27:28.502Z,28.65
2017-12-16T18:29:57.957Z,32.72
2017-12-16T18:32:26.627Z,32.63
2017-12-16T18:34:59.034Z,25.27
2017-12-16T18:37:27.708Z,28.60
2017-12-16T18:39:56.414Z,26.92
2017-12-16T18:42:25.078Z,28.02
2017-12-16T18:44:53.406Z,25.62
2017-12-16T18:47:22.861Z,25.20
2017-12-16T18:49:51.538Z,27.75
2017-12-16T18:52:19.909Z,27.90
2017-12-16T18:54:48.587Z,26.45
2017-12-16T18:57:18.138Z,36.38
2017-12-16T19:02:20.188Z,23.95
2017-12-16T19:04:49.808Z,27.23
2017-12-16T19:07:18.494Z,28.60
2017-12-16T19:09:47.354Z,26.77
2017-12-16T19:12:17.040Z,18.95
2017-12-16T19:17:43.714Z,20.60
2017-12-16T19:20:22.956Z,27.92
2017-12-16T19:22:51.338Z,19.45
2017-12-16T19:25:21.007Z,28.70
2017-12-16T19:27:49.677Z,30.80
2017-12-16T19:30:18.596Z,23.67
2017-12-16T19:32:47.261Z,26.58
2017-12-16T19:35:15.971Z,21.12
2017-12-16T19:37:44.633Z,25.40
2017-12-16T19:40:13.294Z,27.02
2017-12-16T19:42:41.645Z,29.37
2017-12-16T19:45:11.078Z,29.33
2017-12-16T19:47:39.446Z,37.00
2017-12-16T19:50:08.603Z,28.73
2017-12-16T19:52:37.267Z,22.87
2017-12-16T19:55:05.970Z,24.58
2017-12-16T19:57:33.975Z,26.37
2017-12-16T20:00:03.098Z,24.55
2017-12-16T20:02:31.769Z,21.77
2017-12-16T20:05:00.433Z,29.40
2017-12-16T20:07:29.143Z,25.67
2017-12-16T20:09:57.811Z,21.98
2017-12-16T20:12:26.936Z,26.25
2017-12-16T20:14:55.614Z,22.30
2017-12-16T20:17:23.978Z,23.70
2017-12-16T20:19:52.675Z,20.00
2017-12-16T20:22:21.355Z,21.40
2017-12-16T20:24:51.066Z,26.80
2017-12-16T20:27:19.753Z,18.70
2017-12-16T20:29:49.194Z,21.35
2017-12-16T20:32:17.453Z,18.02
2017-12-16T20:34:46.270Z,27.50
2017-12-16T20:37:14.979Z,20.37
2017-12-16T20:39:43.651Z,16.70
2017-12-16T20:42:12.331Z,21.48
2017-12-16T20:44:41.029Z,16.90
2017-12-16T20:47:09.037Z,16.58
2017-12-16T20:49:38.197Z,17.23
2017-12-16T20:52:06.880Z,20.08
2017-12-16T20:54:35.564Z,22.05
2017-12-16T20:57:06.349Z,16.73
2017-12-16T20:59:35.802Z,21.08
2017-12-16T21:02:04.174Z,18.70
2017-12-16T21:04:32.833Z,20.83
2017-12-16T21:07:01.505Z,18.50
2017-12-16T21:09:30.952Z,15.43
2017-12-16T21:11:59.628Z,18.65
2017-12-16T21:14:28.334Z,13.23
2017-12-16T21:16:57.455Z,20.77
2017-12-16T21:19:26.135Z,16.60
2017-12-16T21:21:54.853Z,16.25
2017-12-16T21:24:25.227Z,21.92
2017-12-16T21:26:53.931Z,15.23
2017-12-16T21:29:22.620Z,16.55
2017-12-16T21:31:51.308Z,19.65
2017-12-16T21:34:20.000Z,16.33
2017-12-16T21:36:48.678Z,19.17
2017-12-16T21:39:17.400Z,19.83
2017-12-16T21:41:46.834Z,22.45
2017-12-16T21:44:16.354Z,18.85
2017-12-16T21:46:45.057Z,16.87
2017-12-16T21:49:13.747Z,18.35
2017-12-16T21:51:42.574Z,19.90
2017-12-16T21:54:12.011Z,19.35
2017-12-16T21:56:40.685Z,21.27
2017-12-16T21:59:10.001Z,18.95
2017-12-16T22:01:38.778Z,19.50
2017-12-16T22:04:07.482Z,20.62
2017-12-16T22:06:36.167Z,15.10
2017-12-16T22:09:04.016Z,17.83
2017-12-16T22:11:32.714Z,19.65
2017-12-16T22:14:01.398Z,17.15
2017-12-16T22:16:30.090Z,26.87
2017-12-16T22:18:58.763Z,18.42
2017-12-16T22:21:27.442Z,28.00
2017-12-16T22:23:56.141Z,21.55
2017-12-16T22:26:24.824Z,23.50
2017-12-16T22:28:53.536Z,18.75
2017-12-16T22:31:22.227Z,20.62
2017-12-16T22:33:52.420Z,18.12
2017-12-16T22:36:30.249Z,19.23
2017-12-16T22:39:04.022Z,19.83
2017-12-16T22:41:46.341Z,19.55
2017-12-16T22:44:23.250Z,21.50
2017-12-16T22:49:42.538Z,20.52
2017-12-16T22:54:55.645Z,15.75
2017-12-16T22:57:24.341Z,23.83
2017-12-16T22:59:52.692Z,20.10
2017-12-16T23:02:22.602Z,18.30
2017-12-16T23:04:51.396Z,22.02
2017-12-16T23:07:24.558Z,14.43
2017-12-16T23:09:52.921Z,24.65
2017-12-16T23:12:20.933Z,17.00
2017-12-16T23:14:50.370Z,16.37
2017-12-16T23:17:18.403Z,18.55
2017-12-16T23:19:46.412Z,15.48
2017-12-16T23:22:14.454Z,17.45
2017-12-16T23:24:43.286Z,14.35
2017-12-16T23:27:13.735Z,16.20
2017-12-16T23:29:41.769Z,13.98
2017-12-16T23:32:09.778Z,15.70
2017-12-16T23:34:37.819Z,18.10
2017-12-16T23:37:05.834Z,18.98
2017-12-16T23:39:33.854Z,14.50
2017-12-16T23:42:01.874Z,16.42
2017-12-16T23:44:29.890Z,17.05
2017-12-16T23:46:58.681Z,17.27
2017-12-16T23:49:26.710Z,18.40
2017-12-16T23:51:54.585Z,17.65
2017-12-16T23:54:22.614Z,14.43
2017-12-16T23:56:50.620Z,19.65
2017-12-16T23:59:18.667Z,16.77
